Terminal Aerodrome Forecast
Issued by NWS Grand Forks, ND

Home | Current Version | Previous Version | Text Only | Print | Product List | Glossary Off
Versions: 1 2 3 4 5 6 7 8 9 10 11 12 13 14 15 16 17 18 19 20

000
FTUS43 KFGF 290500
TAFFAR
TAF
KFAR 290520Z 2906/3006 01012KT P6SM OVC015
      TEMPO 2906/2907 5SM -RA BR BKN008
     FM291400 03010KT P6SM OVC025
     FM291800 06010KT P6SM BKN040=

USA.gov is the U.S. government's official web portal to all federal, state and local government web resources and services.